Time;durP1;ratioP1;P1;durP2;ratioP2;P2;SDS_P1;SDS_P2;PMS_P1;PMS_P2;Temp;Humidity;BMP_temperature;BMP_pressure;BME280_temperature;BME280_humidity;BME280_pressure;Samples;Min_cycle;Max_cycle;Signal;HPM_P1;HPM_P2
2022/06/14 00:01:49;;;;;;;5.80;1.58;;;;;;;14.89;56.71;101735.06;5044446;28;20049;-70
2022/06/14 00:04:15;;;;;;;2.90;1.30;;;;;;;15.19;55.47;101735.19;5029894;28;20045;-70
2022/06/14 00:06:42;;;;;;;4.55;1.60;;;;;;;14.97;56.30;101739.00;5027627;28;20462;-70
2022/06/14 00:09:08;;;;;;;7.05;1.85;;;;;;;14.97;56.20;101738.13;5024799;28;20045;-70
2022/06/14 00:11:36;;;;;;;3.00;1.58;;;;;;;14.66;57.74;101744.22;5027498;28;20103;-70
2022/06/14 00:14:05;;;;;;;10.55;1.67;;;;;;;14.64;57.37;101740.78;5026280;28;20108;-70
2022/06/14 00:16:33;;;;;;;7.28;2.08;;;;;;;14.83;56.56;101736.25;5030914;28;20053;-70
2022/06/14 00:19:04;;;;;;;3.83;1.95;;;;;;;14.26;58.96;101740.13;5045911;28;20048;-70
2022/06/14 00:21:31;;;;;;;4.68;1.55;;;;;;;14.39;58.34;101740.38;5047918;28;20044;-70
2022/06/14 00:23:59;;;;;;;7.05;1.70;;;;;;;14.38;58.29;101739.50;5025819;28;20585;-70
2022/06/14 00:26:25;;;;;;;8.25;1.80;;;;;;;14.46;58.17;101752.31;5026735;28;20060;-70
2022/06/14 00:28:52;;;;;;;6.07;1.90;;;;;;;14.33;58.21;101745.94;5019982;28;20099;-70
2022/06/14 00:31:21;;;;;;;5.18;1.65;;;;;;;14.17;58.87;101752.91;5025950;28;20087;-70
2022/06/14 00:33:48;;;;;;;8.20;1.60;;;;;;;14.11;59.36;101748.81;5027004;28;20041;-70
2022/06/14 00:36:22;;;;;;;4.25;1.70;;;;;;;14.27;58.46;101747.09;5027157;28;20111;-70
2022/06/14 00:38:49;;;;;;;9.02;2.35;;;;;;;14.12;59.37;101742.59;5026466;28;20042;-69
2022/06/14 00:41:27;;;;;;;8.82;1.50;;;;;;;14.28;58.36;101748.81;5026466;28;20053;-69
2022/06/14 00:43:53;;;;;;;5.50;1.80;;;;;;;14.46;57.57;101752.31;5026784;28;20115;-69
2022/06/14 00:46:22;;;;;;;7.05;1.55;;;;;;;14.17;58.65;101760.81;5025998;28;20127;-70
2022/06/14 00:48:56;;;;;;;4.43;1.50;;;;;;;14.21;58.52;101762.38;5027366;28;20049;-70
2022/06/14 00:51:27;;;;;;;5.47;1.48;;;;;;;14.35;58.31;101752.88;5027148;28;20110;-70
2022/06/14 00:54:00;;;;;;;6.30;1.40;;;;;;;14.38;57.64;101751.84;5026223;28;20394;-70
2022/06/14 00:56:32;;;;;;;9.20;1.90;;;;;;;14.05;59.33;101771.06;5025207;28;20041;-70
2022/06/14 00:59:04;;;;;;;5.80;1.80;;;;;;;14.05;59.14;101762.28;5025016;28;20540;-70
2022/06/14 01:01:34;;;;;;;;;;;;;;;14.18;58.50;101763.41;5026541;28;20041;-70
2022/06/14 01:04:05;;;;;;;5.72;1.75;;;;;;;14.28;57.85;101758.50;5025852;28;19921;-70
2022/06/14 01:06:43;;;;;;;5.00;1.73;;;;;;;13.73;60.06;101761.25;5026166;28;20457;-70
2022/06/14 01:09:13;;;;;;;5.05;1.38;;;;;;;13.46;60.99;101760.78;5024946;28;20060;-70
2022/06/14 01:11:43;;;;;;;4.03;1.70;;;;;;;13.89;59.48;101771.91;5026798;28;20045;-70
2022/06/14 01:14:14;;;;;;;3.72;1.58;;;;;;;13.97;59.05;101767.09;5025213;28;20053;-69
2022/06/14 01:16:41;;;;;;;9.85;1.80;;;;;;;13.98;58.92;101768.78;5026489;28;20049;-69
2022/06/14 01:19:12;;;;;;;6.72;1.67;;;;;;;13.75;60.14;101761.16;5025902;28;20049;-69
2022/06/14 01:21:39;;;;;;;9.75;2.42;;;;;;;14.07;58.49;101771.00;5024250;28;20072;-69
2022/06/14 01:24:07;;;;;;;7.22;1.80;;;;;;;14.09;58.22;101774.41;5025682;28;20045;-70
2022/06/14 01:26:35;;;;;;;9.60;1.90;;;;;;;13.75;59.57;101771.69;5026350;28;20049;-70
2022/06/14 01:29:05;;;;;;;7.13;1.95;;;;;;;13.94;58.96;101770.72;5023554;28;20496;-70
2022/06/14 01:31:33;;;;;;;3.38;1.35;;;;;;;13.88;58.82;101770.19;5025870;28;20047;-70
2022/06/14 01:34:06;;;;;;;6.38;1.60;;;;;;;13.67;59.78;101765.97;5017953;28;20712;-70
2022/06/14 01:36:35;;;;;;;6.40;1.42;;;;;;;14.05;58.50;101768.41;5026702;28;20489;-71
2022/06/14 01:39:06;;;;;;;10.40;1.80;;;;;;;13.94;58.55;101761.97;5025923;28;20576;-70
2022/06/14 01:41:47;;;;;;;9.57;1.67;;;;;;;13.73;59.33;101755.97;5025032;28;20045;-69
2022/06/14 01:44:33;;;;;;;4.55;1.58;;;;;;;13.51;59.60;101760.56;5024601;28;20049;-69
2022/06/14 01:47:16;;;;;;;7.93;1.73;;;;;;;13.62;59.73;101766.19;5001464;28;20092;-70
2022/06/14 01:52:49;;;;;;;8.88;1.92;;;;;;;13.36;60.44;101772.69;5013704;28;20679;-70
2022/06/14 01:55:23;;;;;;;5.93;2.00;;;;;;;13.29;60.51;101770.41;5024692;28;20104;-70
2022/06/14 01:57:58;;;;;;;7.55;1.60;;;;;;;13.23;60.63;101775.97;5028873;28;20045;-70
2022/06/14 02:00:29;;;;;;;7.30;1.83;;;;;;;13.24;60.78;101775.88;5028429;28;20049;-70
2022/06/14 02:05:57;;;;;;;8.18;2.10;;;;;;;13.52;59.92;101780.72;5024952;28;20444;-71
2022/06/14 02:08:29;;;;;;;4.90;1.70;;;;;;;13.67;58.96;101784.41;5031276;28;20049;-71
2022/06/14 02:11:02;;;;;;;5.57;1.63;;;;;;;13.36;60.41;101785.00;5036834;28;20107;-70
2022/06/14 02:13:34;;;;;;;7.38;1.63;;;;;;;13.36;60.07;101782.38;5018450;28;20099;-69
2022/06/14 02:16:08;;;;;;;7.53;1.73;;;;;;;13.40;59.96;101783.94;5029585;28;20564;-69
2022/06/14 02:18:38;;;;;;;6.22;1.67;;;;;;;13.41;59.95;101780.38;5024493;28;20096;-69
2022/06/14 02:21:15;;;;;;;5.55;1.75;;;;;;;13.59;59.61;101780.38;5024104;28;20057;-69
2022/06/14 02:23:47;;;;;;;12.00;2.38;;;;;;;13.56;59.65;101777.84;5024023;28;20521;-69
2022/06/14 02:26:22;;;;;;;7.35;1.77;;;;;;;13.51;59.91;101777.25;5023337;28;20045;-69
2022/06/14 02:28:54;;;;;;;6.50;1.60;;;;;;;13.81;58.65;101774.06;5026760;28;20056;-69
2022/06/14 02:31:25;;;;;;;7.22;1.98;;;;;;;13.50;60.09;101775.53;5023962;28;20559;-69
2022/06/14 02:33:57;;;;;;;4.05;1.58;;;;;;;13.31;60.67;101774.66;5024575;28;20681;-69
2022/06/14 02:36:33;;;;;;;5.68;1.77;;;;;;;13.27;60.71;101777.50;5013785;28;20058;-69
2022/06/14 02:39:04;;;;;;;6.13;1.80;;;;;;;13.26;60.43;101766.16;5037512;28;20129;-69
2022/06/14 02:41:37;;;;;;;7.53;1.90;;;;;;;13.14;61.21;101774.59;5016393;28;20100;-69
2022/06/14 02:44:10;;;;;;;5.43;1.75;;;;;;;13.08;61.53;101772.22;5025474;28;20552;-69
2022/06/14 02:46:48;;;;;;;4.75;1.60;;;;;;;13.29;60.33;101780.94;5024691;28;20095;-69
2022/06/14 02:49:23;;;;;;;4.40;1.75;;;;;;;13.19;61.02;101775.25;5041068;28;20515;-70
2022/06/14 02:51:55;;;;;;;5.65;1.67;;;;;;;13.37;60.27;101774.41;5040358;28;20102;-70
2022/06/14 02:54:26;;;;;;;6.50;2.00;;;;;;;13.15;61.08;101779.78;5025743;28;20041;-70
2022/06/14 02:56:58;;;;;;;6.65;1.90;;;;;;;13.37;60.13;101774.41;5014540;28;20041;-70
2022/06/14 02:59:31;;;;;;;7.05;1.85;;;;;;;13.11;61.04;101778.25;5021123;28;20047;-70
2022/06/14 03:02:00;;;;;;;5.47;1.55;;;;;;;13.18;60.68;101772.69;5023251;28;20042;-70
2022/06/14 03:04:33;;;;;;;8.27;1.90;;;;;;;13.01;61.45;101776.91;5012115;28;20040;-70
2022/06/14 03:07:06;;;;;;;5.10;1.70;;;;;;;13.14;61.03;101771.97;5034297;28;20122;-70
2022/06/14 03:09:36;;;;;;;8.02;1.95;;;;;;;13.34;60.16;101778.97;5042306;28;20041;-70
2022/06/14 03:12:11;;;;;;;5.88;1.60;;;;;;;13.43;59.44;101774.09;5030640;28;20045;-70
2022/06/14 03:14:50;;;;;;;5.50;2.20;;;;;;;13.16;60.44;101775.38;5031147;28;20100;-70
2022/06/14 03:17:23;;;;;;;6.85;2.00;;;;;;;12.92;61.66;101765.94;5041604;28;20041;-70
2022/06/14 03:20:00;;;;;;;8.20;1.92;;;;;;;12.78;61.82;101774.47;5035981;28;20506;-70
2022/06/14 03:22:39;;;;;;;18.42;1.92;;;;;;;13.10;60.61;101778.31;5022850;28;20092;-70
2022/06/14 03:25:15;;;;;;;7.47;1.73;;;;;;;13.02;61.57;101783.88;5027227;28;20114;-70
2022/06/14 03:27:47;;;;;;;5.50;1.80;;;;;;;12.90;61.88;101775.66;5025180;28;20042;-70
2022/06/14 03:30:21;;;;;;;3.85;1.48;;;;;;;13.06;61.60;101784.59;5023090;28;20049;-70
2022/06/14 03:32:55;;;;;;;6.57;1.83;;;;;;;13.18;61.92;101786.72;5023210;28;20057;-70
2022/06/14 03:35:26;;;;;;;9.75;1.98;;;;;;;13.45;60.64;101793.31;5024796;28;20050;-70
2022/06/14 03:37:53;;;;;;;4.90;1.85;;;;;;;13.74;59.91;101775.28;5029667;28;20052;-70
2022/06/14 03:40:21;;;;;;;4.68;1.80;;;;;;;13.84;59.62;101781.81;5034115;28;20114;-70
2022/06/14 03:42:48;;;;;;;5.15;2.00;;;;;;;13.57;60.21;101789.25;5028097;28;20100;-70
2022/06/14 03:45:20;;;;;;;7.68;2.05;;;;;;;13.80;59.90;101772.34;5023382;28;20046;-70
2022/06/14 03:47:46;;;;;;;8.05;1.60;;;;;;;13.84;59.96;101779.16;5024813;28;20037;-70
2022/06/14 03:50:16;;;;;;;7.45;2.00;;;;;;;13.73;59.74;101776.19;5021703;28;20110;-70
2022/06/14 03:52:56;;;;;;;6.13;1.90;;;;;;;13.93;59.21;101779.56;5024450;28;20076;-70
2022/06/14 03:55:37;;;;;;;4.70;1.80;;;;;;;13.49;60.83;101779.06;5025171;28;20045;-70
2022/06/14 03:58:20;;;;;;;7.22;2.15;;;;;;;14.07;59.01;101779.75;5043312;28;20083;-70
2022/06/14 04:00:52;;;;;;;4.75;1.80;;;;;;;14.07;59.38;101785.03;5032279;28;20045;-70
2022/06/14 04:03:36;;;;;;;7.07;1.77;;;;;;;13.82;59.82;101794.22;5012730;28;20510;-70
2022/06/14 04:06:16;;;;;;;7.85;1.75;;;;;;;13.77;60.25;101796.22;5033463;28;20045;-70
2022/06/14 04:08:53;;;;;;;7.57;1.85;;;;;;;13.88;60.00;101796.56;5027145;28;20046;-70
2022/06/14 04:11:30;;;;;;;4.97;1.80;;;;;;;14.00;59.98;101802.09;5027236;28;20111;-70
2022/06/14 04:14:08;;;;;;;3.13;1.70;;;;;;;14.07;59.40;101800.84;5033220;28;20045;-70
2022/06/14 04:16:49;;;;;;;5.65;1.63;;;;;;;14.29;58.79;101800.66;5047198;28;20048;-70
2022/06/14 04:19:36;;;;;;;6.28;2.03;;;;;;;14.71;57.25;101805.53;5025667;28;20506;-70
2022/06/14 04:22:10;;;;;;;7.88;1.80;;;;;;;14.32;59.18;101810.19;5028498;28;20099;-70
2022/06/14 04:24:42;;;;;;;9.10;1.75;;;;;;;14.59;58.13;101801.75;5027202;28;20042;-70
2022/06/14 04:27:16;;;;;;;4.80;1.80;;;;;;;14.18;59.27;101808.25;5027203;28;20058;-70
2022/06/14 04:29:53;;;;;;;5.50;1.80;;;;;;;14.26;59.46;101819.28;5039827;28;20094;-70
2022/06/14 04:32:27;;;;;;;9.05;2.17;;;;;;;14.63;58.47;101815.66;5027216;28;20756;-70
2022/06/14 04:35:00;;;;;;;5.93;2.00;;;;;;;15.10;57.18;101813.16;5026613;28;20053;-70
2022/06/14 04:37:32;;;;;;;5.30;1.70;;;;;;;14.92;57.62;101809.72;5043389;28;20094;-70
2022/06/14 04:40:05;;;;;;;4.50;1.63;;;;;;;14.87;57.62;101810.88;5032707;28;20398;-70
2022/06/14 04:42:39;;;;;;;6.95;2.00;;;;;;;14.96;57.60;101810.41;5047584;28;20069;-70
2022/06/14 04:45:09;;;;;;;7.32;1.80;;;;;;;15.13;57.41;101812.97;5030667;28;20056;-70
2022/06/14 04:47:41;;;;;;;5.05;1.75;;;;;;;15.25;57.41;101816.75;5044259;28;20049;-70
2022/06/14 04:50:10;;;;;;;;;;;;;;;15.00;58.67;101817.22;5045285;28;20053;-71
2022/06/14 04:52:40;;;;;;;8.95;1.85;;;;;;;15.12;58.16;101824.47;5025959;28;19921;-71
2022/06/14 04:55:11;;;;;;;8.43;2.05;;;;;;;15.27;57.61;101814.88;5029679;28;20064;-71
2022/06/14 04:57:43;;;;;;;6.88;2.10;;;;;;;14.98;58.46;101806.72;5026282;28;20049;-71
2022/06/14 05:00:14;;;;;;;9.38;2.22;;;;;;;15.27;58.09;101806.94;5025579;28;20052;-71
2022/06/14 05:02:47;;;;;;;16.95;2.67;;;;;;;15.31;57.37;101803.19;5026390;28;20161;-69
2022/06/14 05:05:20;;;;;;;9.85;2.63;;;;;;;15.42;57.10;101809.63;5013691;28;20045;-69
2022/06/14 05:07:52;;;;;;;7.82;1.90;;;;;;;15.31;57.90;101812.00;5024477;28;20045;-72
2022/06/14 05:10:23;;;;;;;5.95;1.90;;;;;;;15.34;57.97;101813.59;5027736;28;20045;-68
2022/06/14 05:12:53;;;;;;;10.85;2.20;;;;;;;15.59;57.46;101806.09;5024652;28;20049;-68
2022/06/14 05:15:25;;;;;;;12.23;2.10;;;;;;;15.80;56.78;101809.31;5028526;28;20545;-69
2022/06/14 05:17:57;;;;;;;5.82;1.80;;;;;;;16.07;56.06;101819.16;5018774;28;20127;-69
2022/06/14 05:20:31;;;;;;;5.85;1.63;;;;;;;16.26;55.68;101823.41;5023663;28;20045;-69
2022/06/14 05:23:04;;;;;;;6.88;1.80;;;;;;;16.24;56.42;101818.19;5025507;28;20669;-69
2022/06/14 05:25:43;;;;;;;6.35;1.80;;;;;;;16.39;55.17;101817.31;5025849;28;20102;-70
2022/06/14 05:28:13;;;;;;;11.40;2.08;;;;;;;16.34;55.01;101819.34;5025844;28;20038;-69
2022/06/14 05:30:49;;;;;;;8.20;1.92;;;;;;;16.05;56.09;101820.19;5009513;28;20049;-69
2022/06/14 05:33:30;;;;;;;9.13;1.90;;;;;;;16.20;56.04;101831.69;5025058;28;20050;-69
2022/06/14 05:36:04;;;;;;;8.43;1.92;;;;;;;16.32;54.96;101829.19;5008470;28;20046;-69
2022/06/14 05:38:41;;;;;;;6.07;1.80;;;;;;;16.13;56.03;101839.13;5025310;28;20077;-69
2022/06/14 05:41:14;;;;;;;11.82;3.40;;;;;;;16.35;56.34;101834.31;5019472;28;20527;-69
2022/06/14 05:43:44;;;;;;;;;;;;;;;16.85;54.40;101830.50;5026163;28;20049;-69
2022/06/14 05:46:17;;;;;;;11.05;2.00;;;;;;;16.87;54.61;101833.88;5025209;28;19920;-69
2022/06/14 05:48:50;;;;;;;7.10;1.80;;;;;;;17.10;52.64;101828.03;5025252;28;20095;-69
2022/06/14 05:51:20;;;;;;;4.97;1.58;;;;;;;17.17;53.68;101832.00;5027650;28;20127;-69
2022/06/14 05:53:50;;;;;;;8.20;1.75;;;;;;;16.84;53.54;101827.00;5023713;28;20053;-69
2022/06/14 05:56:22;;;;;;;14.40;2.03;;;;;;;16.93;53.03;101820.25;5022533;28;20041;-69
2022/06/14 05:58:55;;;;;;;8.15;1.85;;;;;;;16.78;54.38;101834.44;5022925;28;20049;-69
2022/06/14 06:01:28;;;;;;;6.35;1.42;;;;;;;16.91;53.12;101827.47;5024748;28;20067;-69
2022/06/14 06:04:03;;;;;;;6.82;1.60;;;;;;;17.09;52.60;101825.47;5025628;28;20052;-69
2022/06/14 06:06:33;;;;;;;9.07;2.08;;;;;;;17.24;53.36;101829.84;5025043;28;20045;-69
2022/06/14 06:09:04;;;;;;;9.85;2.20;;;;;;;17.16;52.62;101834.75;5022226;28;20134;-69
2022/06/14 06:11:36;;;;;;;10.10;2.58;;;;;;;17.54;51.75;101841.16;5013225;28;20537;-69
2022/06/14 06:14:06;;;;;;;9.68;1.73;;;;;;;17.35;51.17;101841.47;5023795;28;20077;-69
2022/06/14 06:16:36;;;;;;;11.43;1.77;;;;;;;18.15;50.25;101834.56;5024406;28;20108;-69
2022/06/14 06:19:11;;;;;;;5.95;1.55;;;;;;;17.90;49.85;101845.94;5023905;28;20056;-69
2022/06/14 06:21:42;;;;;;;10.30;1.80;;;;;;;18.51;50.69;101841.91;5023501;28;20065;-69
2022/06/14 06:24:15;;;;;;;8.57;2.28;;;;;;;18.69;49.35;101843.34;5022644;28;20045;-69
2022/06/14 06:26:47;;;;;;;7.75;2.10;;;;;;;18.74;49.22;101835.91;5023195;28;20041;-69
2022/06/14 06:29:19;;;;;;;9.13;2.20;;;;;;;18.98;48.64;101847.50;5023544;28;20045;-68
2022/06/14 06:31:47;;;;;;;13.35;1.90;;;;;;;19.63;46.95;101844.69;5025992;28;20544;-68
2022/06/14 06:34:17;;;;;;;12.68;1.90;;;;;;;19.87;46.44;101834.94;5025155;28;20559;-69
2022/06/14 06:36:54;;;;;;;12.20;2.38;;;;;;;20.09;46.18;101837.72;5022853;28;20092;-69
2022/06/14 06:39:32;;;;;;;8.73;1.85;;;;;;;20.21;44.93;101842.09;5022876;28;20049;-69
2022/06/14 06:42:05;;;;;;;9.02;2.08;;;;;;;20.54;45.39;101837.91;5023440;28;20132;-69
2022/06/14 06:44:38;;;;;;;6.88;2.30;;;;;;;20.51;44.13;101844.31;5024859;28;20096;-69
2022/06/14 06:47:11;;;;;;;5.35;1.85;;;;;;;20.71;43.01;101848.13;5024034;28;20045;-69
2022/06/14 06:49:48;;;;;;;8.80;2.47;;;;;;;21.01;42.28;101848.44;5023969;28;20413;-69
2022/06/14 06:52:16;;;;;;;8.65;2.70;;;;;;;21.30;42.55;101839.03;5024806;28;20045;-69
2022/06/14 06:54:50;;;;;;;5.70;1.70;;;;;;;21.03;43.31;101857.16;5025103;28;20111;-69
2022/06/14 06:57:22;;;;;;;6.28;1.52;;;;;;;21.17;40.71;101851.66;5023405;28;20072;-69
2022/06/14 06:59:51;;;;;;;3.80;1.13;;;;;;;21.25;39.32;101845.69;5020967;28;20054;-69
2022/06/14 07:02:22;;;;;;;7.10;1.90;;;;;;;21.45;40.68;101842.28;5024331;28;20072;-69
2022/06/14 07:05:07;;;;;;;7.13;2.17;;;;;;;21.93;41.79;101847.34;5024588;28;20564;-69
2022/06/14 07:07:44;;;;;;;11.10;2.00;;;;;;;21.86;44.32;101846.97;5024087;28;20052;-69
2022/06/14 07:10:19;;;;;;;8.23;1.77;;;;;;;22.21;40.54;101846.75;5021006;28;20072;-71
2022/06/14 07:12:52;;;;;;;6.70;1.90;;;;;;;22.35;39.11;101845.63;5023778;28;20041;-68
2022/06/14 07:15:20;;;;;;;;;;;;;;;22.68;38.94;101840.13;5025532;28;20042;-70
2022/06/14 07:17:54;;;;;;;6.82;1.88;;;;;;;22.74;37.91;101839.59;5022134;28;20333;-70
2022/06/14 07:20:32;;;;;;;5.38;1.42;;;;;;;22.44;38.35;101850.16;5022916;28;20041;-70
2022/06/14 07:23:07;;;;;;;9.15;2.30;;;;;;;22.24;39.35;101839.34;5022580;28;20497;-69
2022/06/14 07:25:37;;;;;;;4.35;1.23;;;;;;;21.66;38.29;101837.03;5024619;28;20064;-69
2022/06/14 07:28:09;;;;;;;4.63;1.10;;;;;;;21.61;38.50;101828.56;5022295;28;20076;-69
2022/06/14 07:30:44;;;;;;;3.95;1.20;;;;;;;21.51;38.90;101840.94;5022280;28;20049;-69
2022/06/14 07:33:12;;;;;;;5.43;1.20;;;;;;;21.67;36.43;101834.25;5023062;28;20045;-69
2022/06/14 07:35:45;;;;;;;15.65;1.52;;;;;;;22.02;40.12;101833.25;5022448;28;20041;-70
2022/06/14 07:38:17;;;;;;;5.85;1.48;;;;;;;21.76;37.78;101828.19;5024324;28;20049;-70
2022/06/14 07:40:50;;;;;;;7.25;1.23;;;;;;;21.79;39.01;101840.44;5022937;28;20045;-70
2022/06/14 07:43:26;;;;;;;7.90;1.67;;;;;;;22.35;39.01;101837.59;5025066;28;20076;-70
2022/06/14 07:45:53;;;;;;;13.60;1.67;;;;;;;23.35;39.39;101823.56;5027651;28;20049;-69
2022/06/14 07:48:27;;;;;;;4.57;1.10;;;;;;;22.87;38.05;101826.88;5028197;28;20076;-69
2022/06/14 07:50:58;;;;;;;25.88;1.70;;;;;;;22.59;35.26;101824.81;5027720;28;20463;-69
2022/06/14 07:53:29;;;;;;;6.55;1.20;;;;;;;22.54;35.14;101824.38;5026000;28;20553;-69
2022/06/14 07:56:00;;;;;;;4.35;1.23;;;;;;;22.36;36.59;101825.94;5027271;28;20417;-70
2022/06/14 07:58:31;;;;;;;5.22;1.35;;;;;;;21.61;38.76;101820.56;5026376;28;20049;-70
2022/06/14 08:01:09;;;;;;;7.38;1.38;;;;;;;21.56;39.74;101828.09;5027342;28;20042;-70
2022/06/14 08:03:43;;;;;;;4.13;1.30;;;;;;;22.12;38.05;101827.00;5027244;28;20111;-70
2022/06/14 08:06:15;;;;;;;9.05;1.70;;;;;;;22.77;38.35;101816.09;5027864;28;20054;-70
2022/06/14 08:08:45;;;;;;;12.23;1.25;;;;;;;23.35;36.25;101818.22;5026679;28;20065;-70
2022/06/14 08:11:19;;;;;;;5.68;1.40;;;;;;;22.72;36.30;101818.34;5026024;28;20073;-69
2022/06/14 08:13:53;;;;;;;5.95;1.08;;;;;;;22.04;36.06;101813.44;5028165;28;20037;-69
2022/06/14 08:16:21;;;;;;;4.03;1.33;;;;;;;21.19;38.78;101819.50;5027557;28;20111;-69
2022/06/14 08:18:51;;;;;;;5.85;1.50;;;;;;;20.90;38.53;101829.75;5026529;28;20049;-69
2022/06/14 08:21:25;;;;;;;4.07;1.48;;;;;;;21.10;39.48;101821.03;5028130;28;20563;-69
2022/06/14 08:23:56;;;;;;;5.72;1.42;;;;;;;21.03;37.10;101826.97;5025286;28;20417;-69
2022/06/14 08:26:28;;;;;;;3.17;1.20;;;;;;;21.84;39.23;101824.84;5026091;28;20045;-69
2022/06/14 08:29:00;;;;;;;7.93;1.55;;;;;;;22.78;37.21;101815.13;5025794;28;20049;-69
2022/06/14 08:31:32;;;;;;;6.22;1.50;;;;;;;23.46;36.83;101815.47;5026756;28;20045;-69
2022/06/14 08:34:04;;;;;;;3.65;1.33;;;;;;;24.12;32.12;101813.88;5027216;28;20041;-69
2022/06/14 08:36:39;;;;;;;5.88;1.30;;;;;;;22.92;34.11;101830.00;5026400;28;20575;-69
2022/06/14 08:39:10;;;;;;;5.75;1.67;;;;;;;22.79;34.77;101826.69;5027855;28;20065;-69
2022/06/14 08:41:58;;;;;;;7.18;1.40;;;;;;;21.76;35.84;101830.00;5026512;28;20049;-69
2022/06/14 08:44:31;;;;;;;5.63;1.30;;;;;;;21.29;37.60;101831.97;5027245;28;20088;-69
2022/06/14 08:47:03;;;;;;;;;;;;;;;20.75;37.46;101833.59;5017312;28;20049;-69
2022/06/14 08:49:50;;;;;;;4.13;1.35;;;;;;;21.39;39.84;101823.25;5037736;28;20055;-69
2022/06/14 08:52:59;;;;;;;3.70;1.52;;;;;;;22.15;40.72;101820.53;5027274;28;20056;-69
2022/06/14 08:55:54;;;;;;;4.72;1.30;;;;;;;22.96;35.59;101818.03;4983524;28;20045;-69
2022/06/14 08:58:42;;;;;;;6.00;1.40;;;;;;;22.63;35.66;101813.75;5025192;28;20045;-69
2022/06/14 09:01:17;;;;;;;5.60;1.33;;;;;;;23.06;35.88;101815.44;5025730;28;20394;-69
2022/06/14 09:04:26;;;;;;;5.20;1.40;;;;;;;23.02;34.39;101817.50;5023789;28;20045;-69
2022/06/14 09:07:39;;;;;;;6.03;1.30;;;;;;;22.12;35.55;101820.81;5006025;28;20045;-69
2022/06/14 09:10:32;;;;;;;4.57;1.30;;;;;;;21.97;36.19;101820.25;5024381;28;20061;-69
2022/06/14 09:13:26;;;;;;;6.97;1.50;;;;;;;22.52;38.16;101815.63;5025895;28;20099;-69
2022/06/14 09:16:14;;;;;;;8.57;1.63;;;;;;;23.35;33.88;101805.69;5024195;28;20123;-69
2022/06/14 09:18:56;;;;;;;5.88;1.50;;;;;;;23.27;33.95;101801.03;5024601;28;20045;-67
2022/06/14 09:21:33;;;;;;;5.93;1.42;;;;;;;23.05;34.30;101803.88;5026060;28;20124;-66
2022/06/14 09:24:13;;;;;;;17.92;2.20;;;;;;;23.48;35.87;101800.13;5024903;28;20099;-67
2022/06/14 09:27:05;;;;;;;4.63;1.40;;;;;;;23.74;37.64;101795.94;5024729;28;20568;-66
2022/06/14 09:30:21;;;;;;;5.50;1.45;;;;;;;24.35;31.27;101803.75;5005684;28;20042;-66
2022/06/14 09:33:20;;;;;;;5.40;1.60;;;;;;;25.14;32.65;101797.94;4999952;28;20431;-66
2022/06/14 09:36:16;;;;;;;4.45;1.30;;;;;;;24.97;31.70;101796.03;5004266;28;20128;-66
2022/06/14 09:39:18;;;;;;;2.55;1.17;;;;;;;24.63;30.30;101800.19;5011640;28;20115;-66
2022/06/14 09:42:22;;;;;;;4.32;1.10;;;;;;;23.73;32.17;101802.28;5026928;28;20654;-66
2022/06/14 09:45:27;;;;;;;4.43;1.42;;;;;;;24.07;33.91;101798.22;5022968;28;20049;-66
2022/06/14 09:48:26;;;;;;;4.40;1.50;;;;;;;24.75;33.64;101787.44;5023923;28;20478;-66
2022/06/14 09:51:33;;;;;;;5.85;1.73;;;;;;;24.78;30.72;101788.00;5020114;28;20099;-66
2022/06/14 09:54:21;;;;;;;6.00;1.50;;;;;;;24.33;31.22;101805.72;5020516;28;20099;-66
2022/06/14 09:57:13;;;;;;;4.95;1.45;;;;;;;23.43;35.53;101799.69;5023983;28;20262;-66
2022/06/14 10:00:01;;;;;;;5.68;1.75;;;;;;;23.96;35.51;101797.50;5024994;28;20049;-66
2022/06/14 10:02:38;;;;;;;8.20;1.73;;;;;;;24.84;32.19;101790.13;5024082;28;20045;-66
2022/06/14 10:05:21;;;;;;;4.53;1.33;;;;;;;24.93;30.75;101789.25;5019800;28;20100;-66
2022/06/14 10:08:16;;;;;;;8.38;1.40;;;;;;;24.77;31.78;101797.03;5023573;28;20060;-66
2022/06/14 10:10:54;;;;;;;4.03;1.38;;;;;;;24.57;31.09;101800.78;5005588;28;20050;-66
2022/06/14 10:13:41;;;;;;;5.03;1.60;;;;;;;24.18;31.06;101800.78;5004980;28;20046;-66
2022/06/14 10:16:20;;;;;;;4.93;1.45;;;;;;;24.64;30.47;101799.19;5028354;28;20094;-66
2022/06/14 10:19:07;;;;;;;4.38;1.33;;;;;;;25.53;33.58;101792.41;5044276;28;20049;-66
2022/06/14 10:21:37;;;;;;;8.85;2.15;;;;;;;26.10;31.43;101791.97;5035464;28;20045;-66
2022/06/14 10:24:16;;;;;;;4.18;1.35;;;;;;;26.47;33.58;101793.63;5024215;28;20045;-66
2022/06/14 10:29:51;;;;;;;8.77;1.45;;;;;;;25.81;28.54;101782.44;5022852;28;20071;-66
2022/06/14 10:32:55;;;;;;;4.60;1.30;;;;;;;24.93;30.08;101773.16;5021894;28;20053;-66
2022/06/14 10:35:32;;;;;;;8.32;1.90;;;;;;;24.41;31.33;101787.94;5024653;28;20103;-66
2022/06/14 10:38:20;;;;;;;3.25;1.55;;;;;;;24.61;33.35;101772.69;5025778;28;20045;-66
2022/06/14 10:40:57;;;;;;;9.20;2.55;;;;;;;24.22;31.38;101780.78;5023794;28;20099;-66
2022/06/14 10:43:32;;;;;;;4.85;1.50;;;;;;;23.76;34.33;101783.28;5011607;28;20737;-66
2022/06/14 10:46:04;;;;;;;6.47;1.90;;;;;;;24.98;35.28;101770.03;5024827;28;20737;-66
2022/06/14 10:49:16;;;;;;;3.33;1.48;;;;;;;25.50;29.20;101755.91;5044480;28;20048;-67
2022/06/14 10:51:59;;;;;;;4.03;1.60;;;;;;;25.52;28.80;101763.84;5041161;28;20045;-66
2022/06/14 10:54:33;;;;;;;7.38;1.67;;;;;;;25.52;31.08;101786.19;5021818;28;20129;-66
2022/06/14 10:57:23;;;;;;;5.22;1.70;;;;;;;26.07;31.08;101770.78;5023020;28;20421;-66
2022/06/14 11:00:03;;;;;;;8.50;2.00;;;;;;;26.75;29.33;101770.13;5022684;28;20096;-67
2022/06/14 11:02:50;;;;;;;6.97;2.20;;;;;;;25.85;31.61;101775.75;5022731;28;20060;-66
2022/06/14 11:05:25;;;;;;;7.03;1.58;;;;;;;25.16;30.16;101761.06;5024946;28;20041;-66
2022/06/14 11:08:04;;;;;;;4.20;1.60;;;;;;;24.96;29.65;101759.44;5029263;28;20045;-66
2022/06/14 11:10:46;;;;;;;3.58;1.48;;;;;;;25.13;33.74;101763.16;5043678;28;20045;-66
2022/06/14 11:13:20;;;;;;;11.98;2.03;;;;;;;25.68;33.26;101767.53;5039402;28;20041;-66
2022/06/14 11:15:51;;;;;;;9.43;1.70;;;;;;;26.00;31.67;101763.47;5025935;28;20075;-67
2022/06/14 11:18:36;;;;;;;5.10;1.80;;;;;;;25.92;30.20;101760.72;5027381;28;20126;-66
2022/06/14 11:21:16;;;;;;;7.95;1.70;;;;;;;26.26;29.87;101758.19;5027836;28;20107;-66
2022/06/14 11:23:47;;;;;;;6.93;1.70;;;;;;;25.86;30.09;101750.59;5033378;28;20077;-66
2022/06/14 11:26:23;;;;;;;7.38;1.88;;;;;;;24.83;30.74;101758.06;5028844;28;20041;-66
2022/06/14 11:28:52;;;;;;;5.28;1.70;;;;;;;24.53;31.89;101759.13;5025308;28;20045;-66
2022/06/14 11:31:26;;;;;;;6.50;2.15;;;;;;;24.86;31.90;101750.59;5026802;28;20123;-66
2022/06/14 11:34:22;;;;;;;6.93;1.80;;;;;;;25.29;32.33;101767.91;5026615;28;20110;-66
2022/06/14 11:37:05;;;;;;;12.38;1.58;;;;;;;25.85;29.83;101765.03;5028623;28;20123;-66
2022/06/14 11:39:38;;;;;;;6.72;1.90;;;;;;;26.20;30.24;101764.19;5026919;28;20111;-66
2022/06/14 11:42:13;;;;;;;4.25;1.73;;;;;;;26.29;27.82;101744.44;5028411;28;20391;-67
2022/06/14 11:45:01;;;;;;;9.48;1.90;;;;;;;25.70;30.41;101751.28;5027827;28;20482;-66
2022/06/14 11:47:34;;;;;;;7.80;1.73;;;;;;;25.71;29.58;101762.88;5027469;28;20126;-66
2022/06/14 11:50:13;;;;;;;6.30;1.73;;;;;;;25.66;30.81;101755.25;5024979;28;20454;-66
2022/06/14 11:53:02;;;;;;;6.55;1.50;;;;;;;25.57;29.49;101758.88;5026719;28;20049;-66
2022/06/14 11:55:35;;;;;;;6.43;1.67;;;;;;;25.27;31.52;101759.16;5028230;28;20417;-66
2022/06/14 11:58:12;;;;;;;6.45;1.60;;;;;;;26.11;31.05;101756.03;5026995;28;20077;-66
2022/06/14 12:00:58;;;;;;;6.45;1.80;;;;;;;26.27;30.35;101757.19;5024439;28;20099;-66
2022/06/14 12:03:52;;;;;;;6.47;1.67;;;;;;;26.74;29.77;101742.38;5025714;28;20099;-66
2022/06/14 12:06:32;;;;;;;2.30;1.10;;;;;;;27.19;30.91;101749.34;5026339;28;20061;-66
2022/06/14 12:09:14;;;;;;;5.20;1.70;;;;;;;27.92;27.48;101739.59;5026047;28;20397;-66
2022/06/14 12:11:45;;;;;;;8.60;1.48;;;;;;;27.92;26.22;101740.44;5043197;28;20037;-66
2022/06/14 12:14:38;;;;;;;6.70;1.60;;;;;;;27.15;27.54;101743.44;5046212;28;20493;-66
2022/06/14 12:17:19;;;;;;;6.50;1.50;;;;;;;26.96;28.30;101741.00;5046847;28;20111;-66